Time;durP1;ratioP1;P1;durP2;ratioP2;P2;SDS_P1;SDS_P2;PMS_P1;PMS_P2;Temp;Humidity;BMP_temperature;BMP_pressure;BME280_temperature;BME280_humidity;BME280_pressure;Samples;Min_cycle;Max_cycle;Signal;HPM_P1;HPM_P2
2022/04/01 00:00:40;;;;;;;1.13;1.08;;;;;;;3.86;77.29;99464.66;5217663;28;20194;-82
2022/04/01 00:03:11;;;;;;;0.35;0.35;;;;;;;3.70;78.17;99464.09;5198291;28;20099;-82
2022/04/01 00:05:41;;;;;;;0.95;0.95;;;;;;;3.95;76.40;99461.88;5197549;28;20074;-82
2022/04/01 00:08:12;;;;;;;0.55;0.55;;;;;;;3.98;75.27;99460.94;5211000;28;20065;-82
2022/04/01 00:10:43;;;;;;;0.68;0.68;;;;;;;3.73;77.85;99467.50;5199164;28;20036;-82
2022/04/01 00:13:13;;;;;;;1.27;0.85;;;;;;;3.81;76.76;99463.91;5196298;28;20037;-82
2022/04/01 00:15:44;;;;;;;0.40;0.40;;;;;;;3.82;76.37;99458.66;5181006;28;20032;-82
2022/04/01 00:18:17;;;;;;;1.08;1.08;;;;;;;3.68;77.79;99464.13;5207715;28;20091;-82
2022/04/01 00:20:47;;;;;;;0.50;0.50;;;;;;;3.72;76.85;99470.13;5228975;28;20037;-82
2022/04/01 00:23:18;;;;;;;0.85;0.85;;;;;;;3.59;78.23;99469.50;5205431;28;20116;-82
2022/04/01 00:25:48;;;;;;;0.30;0.30;;;;;;;3.59;77.96;99474.69;5239646;28;20120;-84
2022/04/01 00:28:19;;;;;;;0.73;0.73;;;;;;;3.69;75.94;99476.22;5197010;28;20044;-82
2022/04/01 00:30:49;;;;;;;0.40;0.40;;;;;;;3.58;77.13;99478.16;5201500;28;20056;-82
2022/04/01 00:33:22;;;;;;;0.70;0.70;;;;;;;3.50;77.67;99478.28;5216709;28;20036;-81
2022/04/01 00:35:53;;;;;;;0.85;0.85;;;;;;;3.56;76.69;99487.69;5217798;28;20395;-82
2022/04/01 00:38:25;;;;;;;0.40;0.40;;;;;;;3.54;77.03;99482.56;5188507;28;20188;-81
2022/04/01 00:40:57;;;;;;;0.30;0.30;;;;;;;3.59;76.13;99482.47;5220483;28;20518;-82
2022/04/01 00:43:30;;;;;;;0.45;0.45;;;;;;;3.41;77.86;99496.59;5213532;28;20100;-82
2022/04/01 00:46:01;;;;;;;0.83;0.83;;;;;;;3.50;76.85;99496.44;5202678;28;20057;-82
2022/04/01 00:48:31;;;;;;;0.30;0.30;;;;;;;3.46;76.07;99498.25;5204925;28;20040;-81
2022/04/01 00:51:02;;;;;;;0.40;0.40;;;;;;;3.41;77.03;99502.66;5216821;28;20040;-82
2022/04/01 00:53:33;;;;;;;0.40;0.40;;;;;;;3.28;77.59;99495.94;5198297;28;20029;-81
2022/04/01 00:56:04;;;;;;;0.47;0.47;;;;;;;3.32;78.00;99508.00;5199631;28;20066;-84
2022/04/01 00:58:34;;;;;;;1.58;1.48;;;;;;;3.45;76.22;99501.72;5196179;28;20056;-83
2022/04/01 01:01:05;;;;;;;1.08;1.08;;;;;;;3.56;76.12;99508.47;5222799;28;20025;-82
2022/04/01 01:03:40;;;;;;;0.30;0.30;;;;;;;3.55;75.51;99504.16;5239197;28;20093;-82
2022/04/01 01:06:11;;;;;;;0.95;0.95;;;;;;;3.57;75.78;99513.59;5247628;28;20075;-82
2022/04/01 01:08:42;;;;;;;0.40;0.40;;;;;;;3.32;77.64;99518.38;5186622;28;20596;-82
2022/04/01 01:11:14;;;;;;;0.30;0.30;;;;;;;3.45;77.39;99513.84;5198947;28;20028;-82
2022/04/01 01:13:45;;;;;;;0.50;0.50;;;;;;;3.20;77.57;99508.19;5217835;28;20045;-82
2022/04/01 01:16:16;;;;;;;0.40;0.40;;;;;;;3.27;77.69;99509.78;5201073;28;20486;-82
2022/04/01 01:19:13;;;;;;;0.40;0.40;;;;;;;3.43;76.24;99516.44;5230786;28;20044;-82
2022/04/01 01:21:49;;;;;;;0.50;0.50;;;;;;;3.13;78.11;99516.06;5196420;28;20049;-82
2022/04/01 01:24:35;;;;;;;0.60;0.60;;;;;;;3.14;77.84;99515.19;5215252;28;20560;-82
2022/04/01 01:27:10;;;;;;;0.88;0.88;;;;;;;3.32;77.65;99520.97;5219409;28;20052;-82
2022/04/01 01:29:42;;;;;;;0.40;0.40;;;;;;;3.35;75.80;99515.72;5235386;28;20036;-82
2022/04/01 01:32:19;;;;;;;0.30;0.30;;;;;;;3.10;78.27;99516.09;5218540;28;20082;-82
2022/04/01 01:34:49;;;;;;;0.60;0.60;;;;;;;3.13;78.03;99516.06;5234800;28;20017;-82
2022/04/01 01:37:20;;;;;;;0.22;0.22;;;;;;;2.96;78.73;99511.16;5212255;28;20086;-82
2022/04/01 01:39:51;;;;;;;0.30;0.30;;;;;;;2.98;78.87;99524.09;5204684;28;20548;-82
2022/04/01 01:42:21;;;;;;;0.45;0.45;;;;;;;2.96;78.93;99521.53;5212103;28;20048;-81
2022/04/01 01:44:52;;;;;;;0.63;0.63;;;;;;;2.84;79.07;99519.09;5230329;28;20039;-81
2022/04/01 01:47:22;;;;;;;0.60;0.60;;;;;;;3.01;77.68;99521.47;5219325;28;20048;-82
2022/04/01 01:55:31;;;;;;;2.97;1.38;;;;;;;2.88;78.55;99525.09;5235388;28;20083;-82
2022/04/01 01:58:03;;;;;;;0.40;0.40;;;;;;;2.88;78.03;99519.91;5196032;28;20458;-82
2022/04/01 02:00:33;;;;;;;0.93;0.93;;;;;;;2.80;78.84;99528.66;5213237;28;20086;-82
2022/04/01 02:03:04;;;;;;;0.65;0.65;;;;;;;2.79;79.05;99526.94;5222841;28;20041;-82
2022/04/01 02:05:35;;;;;;;0.68;0.68;;;;;;;2.79;78.88;99523.50;5224055;28;20069;-82
2022/04/01 02:08:05;;;;;;;0.50;0.50;;;;;;;2.93;78.19;99518.13;5198651;28;20048;-82
2022/04/01 02:10:36;;;;;;;0.40;0.40;;;;;;;2.69;79.72;99525.34;5215367;28;20074;-82
2022/04/01 02:13:07;;;;;;;0.82;0.82;;;;;;;2.63;79.49;99522.84;5196221;28;20025;-81
2022/04/01 02:15:38;;;;;;;1.10;0.82;;;;;;;2.77;78.35;99523.50;5218891;28;20392;-82
2022/04/01 02:18:10;;;;;;;1.08;1.08;;;;;;;2.72;78.49;99527.91;5222299;28;20344;-82
2022/04/01 02:20:41;;;;;;;0.50;0.50;;;;;;;2.69;78.65;99522.75;5224752;28;20037;-82
2022/04/01 02:23:12;;;;;;;0.30;0.30;;;;;;;2.87;77.54;99525.97;5224666;28;20029;-82
2022/04/01 02:25:47;;;;;;;0.47;0.47;;;;;;;2.70;78.79;99528.81;5229540;28;20047;-82
2022/04/01 02:28:17;;;;;;;0.60;0.60;;;;;;;2.78;78.33;99537.34;5198235;28;20040;-81
2022/04/01 02:30:51;;;;;;;0.85;0.85;;;;;;;2.62;78.68;99537.56;5215419;28;20653;-82
2022/04/01 02:33:21;;;;;;;0.52;0.52;;;;;;;2.65;78.64;99537.50;5190508;28;20034;-82
2022/04/01 02:35:52;;;;;;;0.52;0.52;;;;;;;2.81;77.75;99552.84;5214565;28;20297;-82
2022/04/01 02:38:23;;;;;;;0.85;0.85;;;;;;;2.73;78.13;99540.00;5231223;28;20036;-82
2022/04/01 02:40:55;;;;;;;0.30;0.30;;;;;;;2.69;78.08;99551.25;5216125;28;20163;-82
2022/04/01 02:43:26;;;;;;;0.60;0.60;;;;;;;2.62;77.77;99558.28;5181907;28;20055;-83
2022/04/01 02:45:56;;;;;;;0.77;0.77;;;;;;;2.71;77.69;99564.22;5206181;28;20120;-83
2022/04/01 02:48:27;;;;;;;0.52;0.52;;;;;;;2.41;78.84;99564.56;5230207;28;20112;-83
2022/04/01 02:50:58;;;;;;;0.60;0.60;;;;;;;2.49;77.80;99565.34;5204320;28;20514;-82
2022/04/01 02:53:28;;;;;;;0.50;0.50;;;;;;;2.81;76.59;99566.66;5199055;28;20092;-82
2022/04/01 02:55:59;;;;;;;0.95;0.95;;;;;;;2.73;77.25;99575.41;5222564;28;20029;-82
2022/04/01 02:58:29;;;;;;;0.35;0.35;;;;;;;2.56;78.01;99573.03;5224171;28;20055;-83
2022/04/01 03:01:00;;;;;;;0.40;0.40;;;;;;;2.65;77.19;99572.91;5210948;28;20037;-84
2022/04/01 03:03:31;;;;;;;0.40;0.40;;;;;;;2.78;76.00;99574.44;5216775;28;20025;-82
2022/04/01 03:06:04;;;;;;;0.55;0.55;;;;;;;2.69;76.73;99584.94;5202557;28;20068;-83
2022/04/01 03:08:34;;;;;;;0.40;0.40;;;;;;;2.68;76.29;99585.81;5218652;28;20060;-83
2022/04/01 03:11:08;;;;;;;0.63;0.63;;;;;;;2.59;77.13;99589.38;5204033;28;20033;-83
2022/04/01 03:13:38;;;;;;;4.85;1.30;;;;;;;2.59;77.27;99588.53;5215397;28;20035;-83
2022/04/01 03:16:09;;;;;;;0.35;0.35;;;;;;;2.70;75.98;99590.97;5206813;28;20025;-83
2022/04/01 03:18:43;;;;;;;1.45;1.35;;;;;;;2.65;76.06;99594.47;5201811;28;20486;-83
2022/04/01 03:21:13;;;;;;;0.30;0.30;;;;;;;2.63;76.38;99595.38;5221650;28;20029;-83
2022/04/01 03:23:47;;;;;;;0.30;0.30;;;;;;;2.51;77.17;99602.44;5207518;28;20560;-83
2022/04/01 03:26:18;;;;;;;0.40;0.40;;;;;;;2.49;77.41;99609.34;5200746;28;20349;-83
2022/04/01 03:28:48;;;;;;;0.82;0.82;;;;;;;2.35;77.38;99608.66;5220708;28;20037;-83
2022/04/01 03:31:19;;;;;;;0.30;0.30;;;;;;;2.49;76.42;99613.66;5216034;28;20025;-83
2022/04/01 03:33:49;;;;;;;0.63;0.63;;;;;;;2.50;76.13;99624.03;5203897;28;20068;-83
2022/04/01 03:36:20;;;;;;;0.95;0.95;;;;;;;2.50;75.82;99624.03;5219123;28;20028;-83
2022/04/01 03:38:51;;;;;;;0.90;0.90;;;;;;;2.25;77.53;99625.16;5195664;28;20045;-83
2022/04/01 03:41:23;;;;;;;0.40;0.40;;;;;;;2.40;76.46;99626.75;5202112;28;20059;-83
2022/04/01 03:43:54;;;;;;;0.32;0.32;;;;;;;2.43;76.23;99624.97;5216636;28;20029;-84
2022/04/01 03:46:35;;;;;;;0.40;0.40;;;;;;;2.46;75.58;99632.69;5218587;28;20033;-83
2022/04/01 03:49:07;;;;;;;1.63;1.52;;;;;;;2.48;75.95;99630.94;5182631;28;20049;-83
2022/04/01 03:51:42;;;;;;;0.32;0.32;;;;;;;2.45;76.02;99637.91;5246792;28;20033;-82
2022/04/01 03:54:15;;;;;;;1.05;1.05;;;;;;;2.50;75.54;99636.97;5204972;28;20037;-83
2022/04/01 03:56:58;;;;;;;0.30;0.30;;;;;;;2.47;76.39;99655.13;5206062;28;20029;-83
2022/04/01 03:59:40;;;;;;;0.45;0.45;;;;;;;2.41;75.77;99650.00;5230451;28;20045;-83
2022/04/01 04:02:14;;;;;;;0.52;0.52;;;;;;;2.31;76.14;99648.38;5235220;28;20059;-83
2022/04/01 04:04:46;;;;;;;0.30;0.30;;;;;;;2.34;76.75;99656.13;5206633;28;20048;-83
2022/04/01 04:07:17;;;;;;;1.08;1.05;;;;;;;2.26;76.78;99655.34;5206746;28;20217;-82
2022/04/01 04:09:48;;;;;;;0.30;0.30;;;;;;;2.34;76.05;99651.81;5223845;28;20039;-83
2022/04/01 04:12:22;;;;;;;0.60;0.60;;;;;;;2.40;75.20;99656.06;5199770;28;20167;-83
2022/04/01 04:14:54;;;;;;;0.68;0.68;;;;;;;2.26;75.94;99657.94;5214171;28;20047;-83
2022/04/01 04:17:44;;;;;;;0.55;0.55;;;;;;;2.47;74.89;99656.88;5197292;28;20119;-83
2022/04/01 04:20:33;;;;;;;0.40;0.40;;;;;;;2.43;75.11;99661.22;5215961;28;20057;-83
2022/04/01 04:23:21;;;;;;;0.30;0.30;;;;;;;2.29;75.57;99668.25;5202467;28;20057;-83
2022/04/01 04:26:11;;;;;;;0.90;0.90;;;;;;;2.06;76.58;99666.75;5211177;28;20063;-83
2022/04/01 04:28:49;;;;;;;1.10;1.10;;;;;;;2.29;75.35;99668.25;5216103;28;20056;-83
2022/04/01 04:31:27;;;;;;;1.05;1.02;;;;;;;2.26;75.67;99678.66;5182838;28;20034;-83
2022/04/01 04:34:02;;;;;;;0.38;0.38;;;;;;;2.14;76.27;99680.47;5222352;28;20033;-83
2022/04/01 04:36:42;;;;;;;1.45;1.38;;;;;;;2.10;75.72;99678.81;5232604;28;20040;-83
2022/04/01 04:39:29;;;;;;;0.65;0.65;;;;;;;2.09;76.07;99682.25;5216206;28;20037;-83
2022/04/01 04:42:02;;;;;;;0.40;0.40;;;;;;;2.12;75.19;99684.78;5239795;28;20041;-83
2022/04/01 04:44:33;;;;;;;0.43;0.43;;;;;;;2.24;74.94;99694.19;5237370;28;20032;-82
2022/04/01 04:47:08;;;;;;;0.30;0.30;;;;;;;2.15;75.48;99692.53;5237768;28;20063;-83
2022/04/01 04:49:42;;;;;;;1.10;1.10;;;;;;;2.05;75.21;99701.25;5237013;28;20116;-83
2022/04/01 04:52:12;;;;;;;0.30;0.30;;;;;;;2.09;75.40;99696.91;5245193;28;20025;-83
2022/04/01 04:54:46;;;;;;;0.50;0.50;;;;;;;2.06;75.96;99699.53;5230554;28;20033;-83
2022/04/01 04:57:20;;;;;;;0.35;0.35;;;;;;;2.13;74.96;99707.22;5185263;28;20326;-82
2022/04/01 04:59:58;;;;;;;0.32;0.32;;;;;;;2.23;74.54;99710.59;5227864;28;20104;-83
2022/04/01 05:02:57;;;;;;;0.38;0.38;;;;;;;2.02;75.74;99716.81;5202060;28;20040;-83
2022/04/01 05:05:34;;;;;;;0.47;0.47;;;;;;;2.02;75.84;99714.25;5213443;28;20021;-82
2022/04/01 05:08:13;;;;;;;0.30;0.30;;;;;;;2.00;76.03;99719.41;5211485;28;20049;-82
2022/04/01 05:11:02;;;;;;;0.52;0.52;;;;;;;1.80;76.92;99727.31;5200675;28;20047;-83
2022/04/01 05:13:59;;;;;;;0.40;0.40;;;;;;;2.02;75.61;99727.19;5215805;28;20043;-83
2022/04/01 05:16:36;;;;;;;0.30;0.30;;;;;;;1.83;77.26;99732.47;5214167;28;20415;-83
2022/04/01 05:19:12;;;;;;;0.68;0.68;;;;;;;2.02;75.72;99737.53;5212988;28;20037;-83
2022/04/01 05:21:55;;;;;;;0.50;0.50;;;;;;;1.85;76.66;99735.03;5211916;28;20033;-84
2022/04/01 05:24:39;;;;;;;0.30;0.30;;;;;;;2.07;75.30;99747.84;5192863;28;20526;-83
2022/04/01 05:27:15;;;;;;;;;;;;;;;1.92;75.86;99747.06;5212952;28;20052;-83
2022/04/01 05:29:48;;;;;;;0.43;0.43;;;;;;;1.78;76.70;99754.06;5195782;28;20886;-83
2022/04/01 05:32:21;;;;;;;0.40;0.40;;;;;;;1.91;76.18;99765.19;5196708;28;20033;-83
2022/04/01 05:34:57;;;;;;;0.30;0.30;;;;;;;1.95;75.25;99757.41;5223240;28;20017;-83
2022/04/01 05:37:29;;;;;;;0.50;0.50;;;;;;;1.95;75.59;99762.56;5226895;28;20287;-84
2022/04/01 05:40:05;;;;;;;0.30;0.30;;;;;;;2.15;74.79;99770.19;5230836;28;20025;-84
2022/04/01 05:42:36;;;;;;;0.85;0.85;;;;;;;2.09;74.60;99780.59;5215286;28;20069;-83
2022/04/01 05:45:07;;;;;;;0.32;0.32;;;;;;;2.11;74.29;99783.16;5209051;28;20266;-83
2022/04/01 05:47:41;;;;;;;0.43;0.43;;;;;;;2.04;75.13;99787.50;5232047;28;20037;-84
2022/04/01 05:50:18;;;;;;;0.30;0.30;;;;;;;2.06;74.60;99783.19;5202106;28;20511;-83
2022/04/01 05:52:50;;;;;;;0.38;0.38;;;;;;;2.14;74.49;99798.69;5217119;28;20095;-83
2022/04/01 05:55:26;;;;;;;0.40;0.40;;;;;;;2.11;74.04;99799.53;5201626;28;20487;-83
2022/04/01 05:57:57;;;;;;;0.55;0.55;;;;;;;1.89;74.96;99801.44;5208895;28;20132;-84
2022/04/01 06:00:29;;;;;;;0.40;0.40;;;;;;;1.94;74.70;99807.44;5182521;28;20112;-84
2022/04/01 06:03:46;;;;;;;1.02;1.02;;;;;;;1.98;73.85;99808.25;5201991;28;20052;-84
2022/04/01 06:06:25;;;;;;;0.40;0.40;;;;;;;1.95;74.76;99810.84;5188889;28;20025;-84
2022/04/01 06:09:08;;;;;;;0.40;0.40;;;;;;;2.10;74.35;99821.13;5231589;28;20076;-84
2022/04/01 06:12:05;;;;;;;0.30;0.30;;;;;;;1.90;74.47;99821.25;5209332;28;20067;-83
2022/04/01 06:15:01;;;;;;;0.55;0.55;;;;;;;1.80;74.94;99825.59;5198026;28;20040;-84
2022/04/01 06:18:04;;;;;;;0.20;0.20;;;;;;;1.84;74.18;99832.50;5222976;28;20682;-84
2022/04/01 06:20:38;;;;;;;2.17;1.98;;;;;;;1.96;74.05;99839.31;5194672;28;20135;-84
2022/04/01 06:23:57;;;;;;;0.52;0.52;;;;;;;2.03;73.76;99843.59;5171634;28;20033;-83
2022/04/01 06:26:31;;;;;;;0.20;0.20;;;;;;;1.98;74.26;99840.19;5188711;28;20391;-84
2022/04/01 06:29:24;;;;;;;0.30;0.30;;;;;;;1.81;74.35;99855.78;5194535;28;20526;-83
2022/04/01 06:32:03;;;;;;;0.35;0.35;;;;;;;1.91;73.90;99853.16;5187091;28;20052;-83
2022/04/01 06:35:10;;;;;;;0.40;0.40;;;;;;;1.75;74.22;99863.59;5234938;28;20017;-84
2022/04/01 06:37:47;;;;;;;0.22;0.22;;;;;;;1.75;74.55;99858.41;5218621;28;20159;-84
2022/04/01 06:40:22;;;;;;;0.65;0.65;;;;;;;1.64;74.53;99865.34;5214036;28;20064;-85
2022/04/01 06:42:56;;;;;;;0.40;0.40;;;;;;;1.85;74.31;99869.56;5193970;28;20063;-84
2022/04/01 06:45:27;;;;;;;0.40;0.40;;;;;;;1.78;74.07;99873.03;5211274;28;20040;-84
2022/04/01 06:47:57;;;;;;;0.30;0.30;;;;;;;1.70;74.09;99870.47;5193055;28;20474;-83
2022/04/01 06:50:30;;;;;;;0.20;0.20;;;;;;;1.77;73.49;99886.84;5175701;28;20287;-83
2022/04/01 06:53:00;;;;;;;0.50;0.50;;;;;;;1.66;74.33;99886.91;5198361;28;20033;-84
2022/04/01 06:55:31;;;;;;;1.25;1.25;;;;;;;1.71;73.61;99882.56;5208805;28;20025;-83
2022/04/01 06:58:01;;;;;;;0.32;0.32;;;;;;;1.59;73.96;99892.97;5178082;28;20126;-84
2022/04/01 07:00:32;;;;;;;0.50;0.50;;;;;;;1.63;74.01;99894.66;5197361;28;20040;-84
2022/04/01 07:03:03;;;;;;;0.40;0.40;;;;;;;1.59;73.89;99892.97;5193196;28;20152;-83
2022/04/01 07:05:35;;;;;;;0.30;0.30;;;;;;;1.66;73.56;99899.81;5213654;28;20146;-84
2022/04/01 07:08:07;;;;;;;0.38;0.38;;;;;;;1.74;73.99;99898.06;5173533;28;20033;-83
2022/04/01 07:10:40;;;;;;;0.30;0.30;;;;;;;1.59;73.93;99898.13;5196514;28;20033;-84
2022/04/01 07:13:11;;;;;;;0.40;0.40;;;;;;;1.71;73.59;99905.81;5198284;28;20094;-84
2022/04/01 07:15:45;;;;;;;0.47;0.47;;;;;;;1.61;73.76;99917.09;5203015;28;20021;-84
2022/04/01 07:18:18;;;;;;;0.30;0.30;;;;;;;1.52;73.77;99917.97;5217589;28;20037;-83
2022/04/01 07:20:48;;;;;;;0.40;0.40;;;;;;;1.71;73.48;99909.28;5220798;28;20036;-84
2022/04/01 07:23:19;;;;;;;0.30;0.30;;;;;;;1.71;73.27;99918.75;5204916;28;20049;-84
2022/04/01 07:25:50;;;;;;;0.40;0.40;;;;;;;1.83;72.75;99918.72;5185192;28;20059;-84
2022/04/01 07:28:20;;;;;;;0.30;0.30;;;;;;;1.97;71.96;99922.97;5219401;28;20041;-84
2022/04/01 07:30:51;;;;;;;0.52;0.52;;;;;;;1.77;73.00;99918.75;5197775;28;20065;-84
2022/04/01 07:33:22;;;;;;;0.30;0.30;;;;;;;1.84;72.67;99930.78;5199121;28;20769;-84
2022/04/01 07:35:54;;;;;;;0.55;0.55;;;;;;;1.63;73.29;99931.72;5213274;28;20255;-84
2022/04/01 07:38:26;;;;;;;0.73;0.73;;;;;;;1.80;72.73;99938.56;5215617;28;20124;-84
2022/04/01 07:40:56;;;;;;;0.40;0.40;;;;;;;1.72;73.59;99944.63;5186637;28;20037;-84
2022/04/01 07:43:27;;;;;;;1.45;1.38;;;;;;;1.60;73.84;99946.41;5232610;28;20056;-83
2022/04/01 07:45:58;;;;;;;0.30;0.30;;;;;;;1.78;73.28;99950.66;5245327;28;20423;-83
2022/04/01 07:48:28;;;;;;;0.60;0.60;;;;;;;1.80;73.14;99952.34;5239699;28;20033;-83
2022/04/01 07:51:03;;;;;;;0.32;0.32;;;;;;;1.83;73.58;99959.25;5213317;28;20021;-83
2022/04/01 07:53:35;;;;;;;0.95;0.95;;;;;;;1.84;72.78;99967.00;5203847;28;20080;-83
2022/04/01 07:56:06;;;;;;;0.50;0.50;;;;;;;1.83;73.67;99960.13;5210619;28;20894;-82
2022/04/01 07:58:36;;;;;;;0.60;0.60;;;;;;;2.06;72.30;99964.34;5222574;28;20045;-83
2022/04/01 08:01:07;;;;;;;3.35;2.08;;;;;;;2.06;72.21;99969.50;5208857;28;20060;-83
2022/04/01 08:03:41;;;;;;;0.40;0.40;;;;;;;1.81;73.28;99971.34;5179100;28;20120;-82
2022/04/01 08:06:12;;;;;;;0.30;0.30;;;;;;;1.76;73.36;99979.13;5193662;28;20119;-82
2022/04/01 08:08:42;;;;;;;0.30;0.30;;;;;;;1.66;73.75;99967.06;5219932;28;20160;-84
2022/04/01 08:11:18;;;;;;;0.45;0.45;;;;;;;1.66;73.01;99980.84;5211054;28;20052;-84
2022/04/01 08:13:48;;;;;;;0.68;0.68;;;;;;;1.90;72.18;99981.66;5216816;28;20561;-83
2022/04/01 08:16:19;;;;;;;0.50;0.50;;;;;;;1.84;72.13;99977.38;5208479;28;20033;-83
2022/04/01 08:18:52;;;;;;;1.63;1.55;;;;;;;1.69;73.14;99985.16;5226121;28;20040;-84
2022/04/01 08:21:22;;;;;;;0.40;0.40;;;;;;;1.69;73.48;99992.94;5184116;28;20411;-84
2022/04/01 08:23:53;;;;;;;0.52;0.52;;;;;;;1.76;73.15;99989.47;5217793;28;20033;-83
2022/04/01 08:26:25;;;;;;;1.85;1.75;;;;;;;1.82;72.44;99998.94;5231849;28;20755;-84
2022/04/01 08:28:55;;;;;;;0.63;0.63;;;;;;;1.55;73.22;99993.81;5202624;28;20029;-83
2022/04/01 08:31:27;;;;;;;0.35;0.35;;;;;;;1.77;72.96;100011.00;5199815;28;20040;-84
2022/04/01 08:33:57;;;;;;;0.20;0.20;;;;;;;1.61;73.35;100005.00;5231478;28;20087;-84
2022/04/01 08:36:28;;;;;;;0.30;0.30;;;;;;;1.79;72.21;100004.94;5231109;28;20021;-84
2022/04/01 08:38:59;;;;;;;0.45;0.45;;;;;;;1.89;72.19;100016.16;5201384;28;20037;-84
2022/04/01 08:41:29;;;;;;;0.30;0.30;;;;;;;1.74;72.29;100017.03;5227617;28;20479;-83
2022/04/01 08:44:02;;;;;;;0.30;0.30;;;;;;;1.72;72.10;100021.34;5213218;28;20440;-84
2022/04/01 08:46:33;;;;;;;0.50;0.50;;;;;;;1.79;72.32;100025.66;5228349;28;20040;-83
2022/04/01 08:49:04;;;;;;;0.25;0.25;;;;;;;1.71;72.65;100040.31;5198029;28;20045;-83
2022/04/01 08:51:35;;;;;;;0.35;0.35;;;;;;;1.69;72.44;100044.66;5216814;28;20392;-84
2022/04/01 08:54:09;;;;;;;0.45;0.45;;;;;;;1.78;72.18;100036.84;5219619;28;20037;-83
2022/04/01 08:56:39;;;;;;;0.40;0.40;;;;;;;1.70;72.76;100056.69;5236287;28;20079;-84
2022/04/01 08:59:10;;;;;;;0.20;0.20;;;;;;;1.67;71.68;100052.41;5203282;28;20036;-84
2022/04/01 09:01:45;;;;;;;0.28;0.28;;;;;;;1.60;72.79;100065.34;5212344;28;20063;-83
2022/04/01 09:04:19;;;;;;;0.20;0.20;;;;;;;1.44;72.72;100065.38;5198955;28;20099;-84
2022/04/01 09:06:51;;;;;;;0.55;0.55;;;;;;;1.63;72.35;100062.75;5211740;28;20052;-83
2022/04/01 09:09:24;;;;;;;0.30;0.30;;;;;;;1.73;72.52;100070.50;5232993;28;20045;-84
2022/04/01 09:12:05;;;;;;;0.32;0.32;;;;;;;1.48;72.76;100069.66;5226007;28;20017;-84
2022/04/01 09:14:36;;;;;;;0.70;0.70;;;;;;;1.62;72.15;100071.34;5214026;28;20046;-84
2022/04/01 09:17:10;;;;;;;0.65;0.65;;;;;;;1.61;72.53;100072.25;5207679;28;20079;-83
2022/04/01 09:19:41;;;;;;;1.33;1.23;;;;;;;1.74;71.27;100073.94;5221937;28;20090;-84
2022/04/01 09:22:23;;;;;;;0.60;0.60;;;;;;;1.51;71.98;100080.00;5217564;28;20029;-83
2022/04/01 09:25:02;;;;;;;0.52;0.52;;;;;;;1.58;71.89;100073.09;5210187;28;20507;-84
2022/04/01 09:27:37;;;;;;;0.30;0.30;;;;;;;1.70;71.04;100087.72;5212709;28;20033;-83
2022/04/01 09:30:12;;;;;;;1.88;0.95;;;;;;;1.76;71.18;100094.63;5184700;28;20035;-83
2022/04/01 09:32:46;;;;;;;0.30;0.30;;;;;;;1.67;71.35;100092.94;5180216;28;20046;-84
2022/04/01 09:35:25;;;;;;;0.30;0.30;;;;;;;1.55;71.47;100092.06;5201033;28;20059;-84
2022/04/01 09:37:59;;;;;;;1.15;1.15;;;;;;;1.57;70.90;100097.25;5203854;28;20065;-84
2022/04/01 09:40:30;;;;;;;;;;;;;;;1.47;71.09;100101.53;5216134;28;20388;-84
2022/04/01 09:43:01;;;;;;;0.40;0.40;;;;;;;1.59;70.17;100105.00;5219284;28;19985;-84
2022/04/01 09:45:37;;;;;;;0.60;0.60;;;;;;;1.54;70.32;100100.66;5238274;28;20566;-83
2022/04/01 09:48:10;;;;;;;0.30;0.30;;;;;;;1.58;70.28;100104.13;5232675;28;20249;-83
2022/04/01 09:50:43;;;;;;;0.30;0.30;;;;;;;1.65;70.62;100102.41;5215237;28;20029;-84
2022/04/01 09:53:21;;;;;;;0.50;0.50;;;;;;;1.73;69.69;100108.44;5209033;28;20037;-84
2022/04/01 09:55:52;;;;;;;0.40;0.40;;;;;;;1.72;69.68;100112.75;5217993;28;20060;-83
2022/04/01 09:58:23;;;;;;;0.30;0.30;;;;;;;1.65;70.14;100121.38;5212223;28;20044;-83
2022/04/01 10:00:56;;;;;;;0.30;0.30;;;;;;;1.68;69.58;100118.78;5198254;28;20025;-83
2022/04/01 10:03:29;;;;;;;0.30;0.30;;;;;;;1.72;69.62;100122.22;5211382;28;20040;-84
2022/04/01 10:06:03;;;;;;;0.60;0.60;;;;;;;1.56;68.74;100122.22;5181737;28;20066;-84
2022/04/01 10:08:37;;;;;;;0.70;0.70;;;;;;;1.45;68.43;100130.84;5227971;28;20033;-83
2022/04/01 10:11:08;;;;;;;0.45;0.45;;;;;;;1.54;69.29;100129.13;5203464;28;20029;-83
2022/04/01 10:13:41;;;;;;;0.68;0.68;;;;;;;1.60;68.57;100124.81;5197576;28;20110;-84
2022/04/01 10:16:12;;;;;;;1.13;1.05;;;;;;;1.60;69.03;100124.81;5205815;28;20025;-83
2022/04/01 10:18:47;;;;;;;0.30;0.30;;;;;;;1.65;68.82;100136.91;5215507;28;20064;-83
2022/04/01 10:21:19;;;;;;;0.30;0.30;;;;;;;1.50;68.51;100136.88;5209008;28;20515;-85
2022/04/01 10:24:06;;;;;;;0.20;0.20;;;;;;;1.69;67.37;100127.41;5217807;28;20443;-83
2022/04/01 10:26:45;;;;;;;0.30;0.30;;;;;;;1.65;68.50;100141.19;5197310;28;20098;-84
2022/04/01 10:29:16;;;;;;;0.30;0.30;;;;;;;1.81;68.71;100134.31;5199852;28;20043;-84
2022/04/01 10:31:54;;;;;;;1.02;1.02;;;;;;;1.73;68.81;100132.59;5212631;28;20489;-84
2022/04/01 10:34:25;;;;;;;0.30;0.30;;;;;;;1.69;69.15;100142.94;5205934;28;20029;-84
2022/04/01 10:37:00;;;;;;;0.60;0.60;;;;;;;1.76;69.01;100134.31;5205136;28;20055;-85
2022/04/01 10:39:30;;;;;;;0.60;0.60;;;;;;;1.80;69.09;100140.34;5218786;28;20039;-83
2022/04/01 10:42:10;;;;;;;0.40;0.40;;;;;;;1.91;68.67;100140.31;5212147;28;20270;-84
2022/04/01 10:44:48;;;;;;;0.38;0.38;;;;;;;1.85;69.44;100138.59;5179963;28;20065;-84
2022/04/01 10:53:45;;;;;;;0.30;0.30;;;;;;;1.72;68.63;100148.97;5221860;28;20033;-82
2022/04/01 10:56:30;;;;;;;0.40;0.40;;;;;;;1.92;68.65;100153.25;5216967;28;20032;-83
2022/04/01 10:59:07;;;;;;;0.20;0.20;;;;;;;1.81;67.51;100148.09;5207093;28;20045;-83
2022/04/01 11:01:56;;;;;;;0.30;0.30;;;;;;;1.91;67.96;100143.75;5216263;28;20043;-82
2022/04/01 11:04:29;;;;;;;1.15;1.10;;;;;;;1.83;67.71;100155.84;5235095;28;20041;-84
2022/04/01 11:07:11;;;;;;;2.38;1.15;;;;;;;1.79;67.59;100160.16;5187046;28;20033;-84
2022/04/01 11:09:50;;;;;;;0.30;0.30;;;;;;;1.79;67.50;100159.31;5222127;28;20041;-83
2022/04/01 11:12:22;;;;;;;0.20;0.20;;;;;;;2.01;67.20;100155.84;5199197;28;20083;-82
2022/04/01 11:14:59;;;;;;;0.40;0.40;;;;;;;1.95;67.58;100154.97;5197379;28;20021;-83
2022/04/01 11:17:35;;;;;;;0.88;0.88;;;;;;;1.96;67.55;100156.69;5206054;28;20029;-84
2022/04/01 11:20:13;;;;;;;0.35;0.35;;;;;;;2.15;67.30;100163.59;5201331;28;20033;-84
2022/04/01 11:22:53;;;;;;;0.40;0.40;;;;;;;2.01;67.55;100160.16;5206371;28;20049;-83
2022/04/01 11:25:23;;;;;;;0.30;0.30;;;;;;;1.96;67.48;100159.28;5190146;28;20348;-84
2022/04/01 11:28:06;;;;;;;0.50;0.50;;;;;;;2.06;67.18;100163.59;5202985;28;20044;-84
2022/04/01 11:30:40;;;;;;;1.17;1.13;;;;;;;1.91;67.82;100168.78;5211546;28;20531;-86
2022/04/01 11:33:19;;;;;;;0.50;0.50;;;;;;;1.87;66.70;100163.59;5197785;28;20041;-83
2022/04/01 11:35:53;;;;;;;5.47;1.48;;;;;;;1.91;67.62;100168.78;5215166;28;20040;-83
2022/04/01 11:38:27;;;;;;;0.22;0.22;;;;;;;1.89;67.38;100180.00;5191574;28;20204;-83
2022/04/01 11:41:00;;;;;;;;;;;;;;;1.83;66.93;100174.81;5194797;28;20029;-84
2022/04/01 11:43:33;;;;;;;1.85;1.75;;;;;;;1.97;66.82;100173.94;5208464;28;19932;-82
2022/04/01 11:46:08;;;;;;;0.30;0.30;;;;;;;1.91;67.32;100179.13;5201379;28;20021;-82
2022/04/01 11:48:50;;;;;;;0.35;0.35;;;;;;;1.85;66.72;100180.88;5219808;28;20040;-84
2022/04/01 11:51:23;;;;;;;0.63;0.63;;;;;;;1.78;67.26;100178.28;5182878;28;20052;-85
2022/04/01 11:53:56;;;;;;;0.50;0.50;;;;;;;1.69;66.96;100186.91;5229030;28;20040;-85
2022/04/01 11:56:27;;;;;;;0.30;0.30;;;;;;;1.87;66.13;100179.13;5218732;28;20033;-83
2022/04/01 11:58:58;;;;;;;0.28;0.28;;;;;;;1.91;67.15;100182.56;5220630;28;20029;-82
2022/04/01 12:01:54;;;;;;;0.30;0.30;;;;;;;1.86;67.76;100190.34;5229565;28;20021;-84
2022/04/01 12:04:32;;;;;;;0.40;0.40;;;;;;;1.94;67.31;100194.66;5210065;28;20083;-83
2022/04/01 12:10:04;;;;;;;0.30;0.30;;;;;;;1.96;67.17;100192.91;5218471;28;20057;-83
2022/04/01 12:12:35;;;;;;;0.20;0.20;;;;;;;2.10;67.29;100187.75;5208758;28;20439;-84
2022/04/01 12:15:06;;;;;;;0.30;0.30;;;;;;;1.86;68.32;100186.91;5214830;28;20045;-84
2022/04/01 12:17:49;;;;;;;0.70;0.70;;;;;;;1.83;67.63;100187.75;5214062;28;20390;-83
2022/04/01 12:20:20;;;;;;;0.30;0.30;;;;;;;1.84;67.09;100184.31;5228993;28;20068;-83
2022/04/01 12:22:54;;;;;;;0.30;0.30;;;;;;;1.84;67.40;100198.97;5200828;28;20037;-84
2022/04/01 12:25:24;;;;;;;0.47;0.47;;;;;;;1.88;67.14;100196.38;5228705;28;20029;-83
2022/04/01 12:27:57;;;;;;;1.05;1.05;;;;;;;1.99;67.13;100208.47;5224599;28;20039;-83